sensor_id;sensor_type;location;lat;lon;timestamp;temperature;humidity
67817;DHT22;54614;47.576;7.524;2023-07-20T00:01:47;27.30;59.50
67817;DHT22;54614;47.576;7.524;2023-07-20T00:04:13;27.30;59.50
67817;DHT22;54614;47.576;7.524;2023-07-20T00:06:40;27.20;59.50
67817;DHT22;54614;47.576;7.524;2023-07-20T00:09:08;27.20;59.60
67817;DHT22;54614;47.576;7.524;2023-07-20T00:11:38;27.20;59.40
67817;DHT22;54614;47.576;7.524;2023-07-20T00:14:05;27.20;59.60
67817;DHT22;54614;47.576;7.524;2023-07-20T00:16:31;27.30;59.40
67817;DHT22;54614;47.576;7.524;2023-07-20T00:18:58;27.30;59.30
67817;DHT22;54614;47.576;7.524;2023-07-20T00:21:23;27.20;59.40
67817;DHT22;54614;47.576;7.524;2023-07-20T00:23:49;27.30;60.00
67817;DHT22;54614;47.576;7.524;2023-07-20T00:26:15;27.20;59.30
67817;DHT22;54614;47.576;7.524;2023-07-20T00:28:41;27.30;59.20
67817;DHT22;54614;47.576;7.524;2023-07-20T00:31:06;27.20;59.20
67817;DHT22;54614;47.576;7.524;2023-07-20T00:33:32;27.20;59.30
67817;DHT22;54614;47.576;7.524;2023-07-20T00:35:58;27.20;59.30
67817;DHT22;54614;47.576;7.524;2023-07-20T00:38:24;27.30;59.50
67817;DHT22;54614;47.576;7.524;2023-07-20T00:40:50;27.30;59.20
67817;DHT22;54614;47.576;7.524;2023-07-20T00:43:15;27.20;59.30
67817;DHT22;54614;47.576;7.524;2023-07-20T00:45:42;27.20;59.00
67817;DHT22;54614;47.576;7.524;2023-07-20T00:48:09;27.20;59.20
67817;DHT22;54614;47.576;7.524;2023-07-20T00:50:35;27.20;59.10
67817;DHT22;54614;47.576;7.524;2023-07-20T00:53:02;27.20;59.10
67817;DHT22;54614;47.576;7.524;2023-07-20T00:55:32;27.20;59.20
67817;DHT22;54614;47.576;7.524;2023-07-20T00:57:59;27.20;59.20
67817;DHT22;54614;47.576;7.524;2023-07-20T01:00:25;27.20;59.10
67817;DHT22;54614;47.576;7.524;2023-07-20T01:02:53;27.20;59.20
67817;DHT22;54614;47.576;7.524;2023-07-20T01:05:19;27.20;59.20
67817;DHT22;54614;47.576;7.524;2023-07-20T01:10:32;27.20;59.10
67817;DHT22;54614;47.576;7.524;2023-07-20T01:13:03;27.20;59.20
67817;DHT22;54614;47.576;7.524;2023-07-20T01:15:34;27.20;59.20
67817;DHT22;54614;47.576;7.524;2023-07-20T01:18:00;27.20;59.20
67817;DHT22;54614;47.576;7.524;2023-07-20T01:20:31;27.20;59.20
67817;DHT22;54614;47.576;7.524;2023-07-20T01:26:34;27.20;59.10
67817;DHT22;54614;47.576;7.524;2023-07-20T01:32:08;27.20;59.40
67817;DHT22;54614;47.576;7.524;2023-07-20T01:34:36;27.20;59.10
67817;DHT22;54614;47.576;7.524;2023-07-20T01:37:03;27.20;59.10
67817;DHT22;54614;47.576;7.524;2023-07-20T01:39:31;27.20;59.20
67817;DHT22;54614;47.576;7.524;2023-07-20T01:41:58;27.10;59.00
67817;DHT22;54614;47.576;7.524;2023-07-20T01:44:25;27.20;59.10
67817;DHT22;54614;47.576;7.524;2023-07-20T01:46:50;27.10;59.10
67817;DHT22;54614;47.576;7.524;2023-07-20T01:49:16;27.10;59.10
67817;DHT22;54614;47.576;7.524;2023-07-20T01:51:42;27.10;59.00
67817;DHT22;54614;47.576;7.524;2023-07-20T01:54:07;27.10;59.10
67817;DHT22;54614;47.576;7.524;2023-07-20T01:56:33;27.20;59.00
67817;DHT22;54614;47.576;7.524;2023-07-20T01:58:59;27.20;59.10
67817;DHT22;54614;47.576;7.524;2023-07-20T02:01:25;27.10;59.00
67817;DHT22;54614;47.576;7.524;2023-07-20T02:03:53;27.10;59.10
67817;DHT22;54614;47.576;7.524;2023-07-20T02:06:19;27.10;59.20
67817;DHT22;54614;47.576;7.524;2023-07-20T02:08:45;27.10;59.20
67817;DHT22;54614;47.576;7.524;2023-07-20T02:11:11;27.10;59.10
67817;DHT22;54614;47.576;7.524;2023-07-20T02:13:37;27.10;59.20
67817;DHT22;54614;47.576;7.524;2023-07-20T02:16:03;27.10;59.20
67817;DHT22;54614;47.576;7.524;2023-07-20T02:18:29;27.10;59.20
67817;DHT22;54614;47.576;7.524;2023-07-20T02:20:55;27.10;59.20
67817;DHT22;54614;47.576;7.524;2023-07-20T02:23:21;27.00;59.20
67817;DHT22;54614;47.576;7.524;2023-07-20T02:25:47;27.00;59.10
67817;DHT22;54614;47.576;7.524;2023-07-20T02:28:15;27.10;59.20
67817;DHT22;54614;47.576;7.524;2023-07-20T02:30:40;27.10;59.10
67817;DHT22;54614;47.576;7.524;2023-07-20T02:33:07;27.10;59.20
67817;DHT22;54614;47.576;7.524;2023-07-20T02:35:33;27.00;59.10
67817;DHT22;54614;47.576;7.524;2023-07-20T02:37:59;27.00;59.10
67817;DHT22;54614;47.576;7.524;2023-07-20T02:40:24;27.10;59.20
67817;DHT22;54614;47.576;7.524;2023-07-20T02:42:50;27.00;59.20
67817;DHT22;54614;47.576;7.524;2023-07-20T02:45:16;27.10;59.30
67817;DHT22;54614;47.576;7.524;2023-07-20T02:47:42;27.00;59.20
67817;DHT22;54614;47.576;7.524;2023-07-20T02:50:08;27.10;59.20
67817;DHT22;54614;47.576;7.524;2023-07-20T02:52:34;27.00;59.20
67817;DHT22;54614;47.576;7.524;2023-07-20T02:55:00;27.00;59.20
67817;DHT22;54614;47.576;7.524;2023-07-20T02:57:26;27.00;59.20
67817;DHT22;54614;47.576;7.524;2023-07-20T02:59:52;27.10;59.20
67817;DHT22;54614;47.576;7.524;2023-07-20T03:02:18;27.00;59.20
67817;DHT22;54614;47.576;7.524;2023-07-20T03:04:44;27.00;59.20
67817;DHT22;54614;47.576;7.524;2023-07-20T03:07:10;27.00;59.20
67817;DHT22;54614;47.576;7.524;2023-07-20T03:09:36;27.00;59.20
67817;DHT22;54614;47.576;7.524;2023-07-20T03:12:01;27.00;59.20
67817;DHT22;54614;47.576;7.524;2023-07-20T03:14:29;27.00;59.20
67817;DHT22;54614;47.576;7.524;2023-07-20T03:16:55;27.00;59.20
67817;DHT22;54614;47.576;7.524;2023-07-20T03:19:21;27.00;59.20
67817;DHT22;54614;47.576;7.524;2023-07-20T03:21:47;27.00;59.20
67817;DHT22;54614;47.576;7.524;2023-07-20T03:24:13;27.00;59.20
67817;DHT22;54614;47.576;7.524;2023-07-20T03:26:39;27.00;59.20
67817;DHT22;54614;47.576;7.524;2023-07-20T03:29:05;27.00;59.30
67817;DHT22;54614;47.576;7.524;2023-07-20T03:31:32;27.00;59.30
67817;DHT22;54614;47.576;7.524;2023-07-20T03:33:58;27.00;59.30
67817;DHT22;54614;47.576;7.524;2023-07-20T03:36:24;27.00;58.20
67817;DHT22;54614;47.576;7.524;2023-07-20T03:38:49;26.90;58.70
67817;DHT22;54614;47.576;7.524;2023-07-20T03:41:15;26.70;57.70
67817;DHT22;54614;47.576;7.524;2023-07-20T03:43:41;25.90;57.40
67817;DHT22;54614;47.576;7.524;2023-07-20T03:46:07;24.90;59.50
67817;DHT22;54614;47.576;7.524;2023-07-20T03:48:33;24.80;60.40
67817;DHT22;54614;47.576;7.524;2023-07-20T03:50:59;25.00;59.80
67817;DHT22;54614;47.576;7.524;2023-07-20T03:53:25;24.70;59.80
67817;DHT22;54614;47.576;7.524;2023-07-20T03:55:52;24.20;60.50
67817;DHT22;54614;47.576;7.524;2023-07-20T03:58:19;24.10;61.20
67817;DHT22;54614;47.576;7.524;2023-07-20T04:00:49;24.10;61.00
67817;DHT22;54614;47.576;7.524;2023-07-20T04:03:16;24.30;60.60
67817;DHT22;54614;47.576;7.524;2023-07-20T04:05:46;24.30;62.60
67817;DHT22;54614;47.576;7.524;2023-07-20T04:08:12;24.20;62.40
67817;DHT22;54614;47.576;7.524;2023-07-20T04:10:38;24.40;62.30
67817;DHT22;54614;47.576;7.524;2023-07-20T04:13:05;24.40;61.90
67817;DHT22;54614;47.576;7.524;2023-07-20T04:15:31;24.40;61.50
67817;DHT22;54614;47.576;7.524;2023-07-20T04:17:57;23.80;61.80
67817;DHT22;54614;47.576;7.524;2023-07-20T04:20:23;23.40;62.90
67817;DHT22;54614;47.576;7.524;2023-07-20T04:22:49;23.40;63.40
67817;DHT22;54614;47.576;7.524;2023-07-20T04:25:16;23.60;62.60
67817;DHT22;54614;47.576;7.524;2023-07-20T04:27:43;23.80;62.20
67817;DHT22;54614;47.576;7.524;2023-07-20T04:30:09;23.80;62.00
67817;DHT22;54614;47.576;7.524;2023-07-20T04:32:37;23.60;62.50
67817;DHT22;54614;47.576;7.524;2023-07-20T04:35:06;23.70;62.60
67817;DHT22;54614;47.576;7.524;2023-07-20T04:37:35;23.70;62.40
67817;DHT22;54614;47.576;7.524;2023-07-20T04:40:01;23.80;61.90
67817;DHT22;54614;47.576;7.524;2023-07-20T04:42:27;23.80;61.90
67817;DHT22;54614;47.576;7.524;2023-07-20T04:44:53;23.70;61.90
67817;DHT22;54614;47.576;7.524;2023-07-20T04:47:18;23.60;61.80
67817;DHT22;54614;47.576;7.524;2023-07-20T04:49:44;23.60;61.90
67817;DHT22;54614;47.576;7.524;2023-07-20T04:52:10;23.70;61.90
67817;DHT22;54614;47.576;7.524;2023-07-20T04:54:36;23.90;62.80
67817;DHT22;54614;47.576;7.524;2023-07-20T04:57:02;24.10;62.60
67817;DHT22;54614;47.576;7.524;2023-07-20T04:59:28;24.40;62.30
67817;DHT22;54614;47.576;7.524;2023-07-20T05:01:53;24.50;62.00
67817;DHT22;54614;47.576;7.524;2023-07-20T05:04:19;24.70;61.70
67817;DHT22;54614;47.576;7.524;2023-07-20T05:06:45;24.70;61.70
67817;DHT22;54614;47.576;7.524;2023-07-20T05:09:11;24.80;61.50
67817;DHT22;54614;47.576;7.524;2023-07-20T05:11:36;24.90;61.60
67817;DHT22;54614;47.576;7.524;2023-07-20T05:14:02;25.00;61.70
67817;DHT22;54614;47.576;7.524;2023-07-20T05:16:28;25.00;61.70
67817;DHT22;54614;47.576;7.524;2023-07-20T05:18:54;25.10;61.70
67817;DHT22;54614;47.576;7.524;2023-07-20T05:21:19;25.20;61.80
67817;DHT22;54614;47.576;7.524;2023-07-20T05:23:45;25.20;61.90
67817;DHT22;54614;47.576;7.524;2023-07-20T05:26:11;25.20;61.90
67817;DHT22;54614;47.576;7.524;2023-07-20T05:28:37;25.20;61.90
67817;DHT22;54614;47.576;7.524;2023-07-20T05:31:03;25.30;61.90
67817;DHT22;54614;47.576;7.524;2023-07-20T05:33:29;25.30;61.90
67817;DHT22;54614;47.576;7.524;2023-07-20T05:35:54;25.40;62.50
67817;DHT22;54614;47.576;7.524;2023-07-20T05:38:20;25.40;61.70
67817;DHT22;54614;47.576;7.524;2023-07-20T05:40:46;25.40;61.70
67817;DHT22;54614;47.576;7.524;2023-07-20T05:43:12;25.40;61.70
67817;DHT22;54614;47.576;7.524;2023-07-20T05:45:41;25.40;61.80
67817;DHT22;54614;47.576;7.524;2023-07-20T05:48:08;25.40;61.70
67817;DHT22;54614;47.576;7.524;2023-07-20T05:50:42;25.50;61.90
67817;DHT22;54614;47.576;7.524;2023-07-20T05:53:11;25.50;61.90
67817;DHT22;54614;47.576;7.524;2023-07-20T05:55:37;25.50;62.00
67817;DHT22;54614;47.576;7.524;2023-07-20T05:58:04;25.50;61.90
67817;DHT22;54614;47.576;7.524;2023-07-20T06:00:30;25.50;61.70
67817;DHT22;54614;47.576;7.524;2023-07-20T06:02:56;25.50;61.70
67817;DHT22;54614;47.576;7.524;2023-07-20T06:05:22;25.60;61.70
67817;DHT22;54614;47.576;7.524;2023-07-20T06:07:49;25.60;61.70
67817;DHT22;54614;47.576;7.524;2023-07-20T06:10:15;25.60;61.70
67817;DHT22;54614;47.576;7.524;2023-07-20T06:12:42;25.70;61.80
67817;DHT22;54614;47.576;7.524;2023-07-20T06:15:33;25.60;61.80
67817;DHT22;54614;47.576;7.524;2023-07-20T06:18:02;25.60;61.90
67817;DHT22;54614;47.576;7.524;2023-07-20T06:20:29;25.60;61.80
67817;DHT22;54614;47.576;7.524;2023-07-20T06:22:55;25.70;61.90
67817;DHT22;54614;47.576;7.524;2023-07-20T06:25:22;25.70;61.90
67817;DHT22;54614;47.576;7.524;2023-07-20T06:27:49;25.70;61.80
67817;DHT22;54614;47.576;7.524;2023-07-20T06:30:19;25.70;61.70
67817;DHT22;54614;47.576;7.524;2023-07-20T06:32:45;25.70;61.70
67817;DHT22;54614;47.576;7.524;2023-07-20T06:35:11;25.70;61.70
67817;DHT22;54614;47.576;7.524;2023-07-20T06:37:37;25.70;61.80
67817;DHT22;54614;47.576;7.524;2023-07-20T06:40:03;25.70;61.80
67817;DHT22;54614;47.576;7.524;2023-07-20T06:42:30;25.70;61.80
67817;DHT22;54614;47.576;7.524;2023-07-20T06:44:57;25.70;61.70
67817;DHT22;54614;47.576;7.524;2023-07-20T06:47:23;25.70;61.80
67817;DHT22;54614;47.576;7.524;2023-07-20T06:49:49;25.70;61.90
67817;DHT22;54614;47.576;7.524;2023-07-20T06:52:15;25.70;61.90
67817;DHT22;54614;47.576;7.524;2023-07-20T06:54:41;25.70;61.90
67817;DHT22;54614;47.576;7.524;2023-07-20T06:57:06;25.70;61.80
67817;DHT22;54614;47.576;7.524;2023-07-20T06:59:32;25.70;61.70
67817;DHT22;54614;47.576;7.524;2023-07-20T07:01:58;25.70;61.80
67817;DHT22;54614;47.576;7.524;2023-07-20T07:04:23;25.80;61.80
67817;DHT22;54614;47.576;7.524;2023-07-20T07:06:49;25.80;61.90
67817;DHT22;54614;47.576;7.524;2023-07-20T07:09:15;25.80;61.90
67817;DHT22;54614;47.576;7.524;2023-07-20T07:11:41;25.70;61.80
67817;DHT22;54614;47.576;7.524;2023-07-20T07:14:06;25.80;61.80
67817;DHT22;54614;47.576;7.524;2023-07-20T07:16:32;25.80;61.80
67817;DHT22;54614;47.576;7.524;2023-07-20T07:18:58;25.70;61.80
67817;DHT22;54614;47.576;7.524;2023-07-20T07:21:25;25.70;61.70
67817;DHT22;54614;47.576;7.524;2023-07-20T07:23:51;25.80;61.60
67817;DHT22;54614;47.576;7.524;2023-07-20T07:26:19;25.80;61.70
67817;DHT22;54614;47.576;7.524;2023-07-20T07:28:44;25.80;61.70
67817;DHT22;54614;47.576;7.524;2023-07-20T07:31:10;25.80;61.70
67817;DHT22;54614;47.576;7.524;2023-07-20T07:33:36;25.80;61.70
67817;DHT22;54614;47.576;7.524;2023-07-20T07:36:02;25.80;61.70
67817;DHT22;54614;47.576;7.524;2023-07-20T07:38:28;25.80;61.70
67817;DHT22;54614;47.576;7.524;2023-07-20T07:40:54;25.80;61.70
67817;DHT22;54614;47.576;7.524;2023-07-20T07:43:20;25.80;61.60
67817;DHT22;54614;47.576;7.524;2023-07-20T07:45:45;25.80;61.60
67817;DHT22;54614;47.576;7.524;2023-07-20T07:48:11;25.80;61.60
67817;DHT22;54614;47.576;7.524;2023-07-20T07:50:38;25.80;61.60
67817;DHT22;54614;47.576;7.524;2023-07-20T07:53:05;25.90;61.70
67817;DHT22;54614;47.576;7.524;2023-07-20T07:55:32;25.90;61.70
67817;DHT22;54614;47.576;7.524;2023-07-20T07:57:58;25.80;61.60
67817;DHT22;54614;47.576;7.524;2023-07-20T08:00:25;25.90;61.70
67817;DHT22;54614;47.576;7.524;2023-07-20T08:02:51;25.90;61.70
67817;DHT22;54614;47.576;7.524;2023-07-20T08:05:17;25.90;61.70
67817;DHT22;54614;47.576;7.524;2023-07-20T08:07:43;25.90;61.70
67817;DHT22;54614;47.576;7.524;2023-07-20T08:10:09;25.90;61.70
67817;DHT22;54614;47.576;7.524;2023-07-20T08:12:35;25.80;61.70
67817;DHT22;54614;47.576;7.524;2023-07-20T08:15:01;25.90;61.90
67817;DHT22;54614;47.576;7.524;2023-07-20T08:17:27;25.80;61.70
67817;DHT22;54614;47.576;7.524;2023-07-20T08:19:53;25.80;61.70
67817;DHT22;54614;47.576;7.524;2023-07-20T08:22:19;25.80;61.80
67817;DHT22;54614;47.576;7.524;2023-07-20T08:24:45;25.90;61.80
67817;DHT22;54614;47.576;7.524;2023-07-20T08:27:10;25.90;61.90
67817;DHT22;54614;47.576;7.524;2023-07-20T08:29:37;25.80;61.70
67817;DHT22;54614;47.576;7.524;2023-07-20T08:32:04;25.90;61.80
67817;DHT22;54614;47.576;7.524;2023-07-20T08:34:30;25.80;61.70
67817;DHT22;54614;47.576;7.524;2023-07-20T08:36:57;25.90;61.80
67817;DHT22;54614;47.576;7.524;2023-07-20T08:39:24;25.90;61.70
67817;DHT22;54614;47.576;7.524;2023-07-20T08:41:50;25.90;61.70
67817;DHT22;54614;47.576;7.524;2023-07-20T08:44:19;25.90;61.70
67817;DHT22;54614;47.576;7.524;2023-07-20T08:46:47;25.90;61.70
67817;DHT22;54614;47.576;7.524;2023-07-20T08:49:16;25.90;61.70
67817;DHT22;54614;47.576;7.524;2023-07-20T08:51:45;25.90;61.70
67817;DHT22;54614;47.576;7.524;2023-07-20T08:54:12;25.90;61.70
67817;DHT22;54614;47.576;7.524;2023-07-20T08:56:40;25.90;61.60
67817;DHT22;54614;47.576;7.524;2023-07-20T08:59:12;25.90;61.70
67817;DHT22;54614;47.576;7.524;2023-07-20T09:01:43;25.90;61.70
67817;DHT22;54614;47.576;7.524;2023-07-20T09:04:11;25.90;61.70
67817;DHT22;54614;47.576;7.524;2023-07-20T09:06:38;25.90;61.90
67817;DHT22;54614;47.576;7.524;2023-07-20T09:09:04;25.90;61.70
67817;DHT22;54614;47.576;7.524;2023-07-20T09:11:30;25.90;61.70
67817;DHT22;54614;47.576;7.524;2023-07-20T09:14:09;25.90;61.70
67817;DHT22;54614;47.576;7.524;2023-07-20T09:16:49;25.90;61.70
67817;DHT22;54614;47.576;7.524;2023-07-20T09:19:18;25.90;61.70
67817;DHT22;54614;47.576;7.524;2023-07-20T09:21:48;25.90;61.70
67817;DHT22;54614;47.576;7.524;2023-07-20T09:24:18;25.90;61.70
67817;DHT22;54614;47.576;7.524;2023-07-20T09:26:46;25.90;61.70
67817;DHT22;54614;47.576;7.524;2023-07-20T09:29:14;25.90;61.70
67817;DHT22;54614;47.576;7.524;2023-07-20T09:31:44;25.90;61.70
67817;DHT22;54614;47.576;7.524;2023-07-20T09:34:24;25.90;61.60
67817;DHT22;54614;47.576;7.524;2023-07-20T09:36:51;25.90;61.60
67817;DHT22;54614;47.576;7.524;2023-07-20T09:39:17;26.00;61.60
67817;DHT22;54614;47.576;7.524;2023-07-20T09:41:43;26.00;61.60
67817;DHT22;54614;47.576;7.524;2023-07-20T09:44:10;26.00;61.60
67817;DHT22;54614;47.576;7.524;2023-07-20T09:46:45;26.00;61.60
67817;DHT22;54614;47.576;7.524;2023-07-20T09:49:12;26.00;61.50
67817;DHT22;54614;47.576;7.524;2023-07-20T09:51:38;26.00;61.50
67817;DHT22;54614;47.576;7.524;2023-07-20T09:54:04;26.00;61.50
67817;DHT22;54614;47.576;7.524;2023-07-20T09:56:33;26.00;61.50
67817;DHT22;54614;47.576;7.524;2023-07-20T09:59:00;26.10;61.50
67817;DHT22;54614;47.576;7.524;2023-07-20T10:01:26;26.00;61.50
67817;DHT22;54614;47.576;7.524;2023-07-20T10:03:58;26.10;61.60
67817;DHT22;54614;47.576;7.524;2023-07-20T10:06:28;26.10;61.70
67817;DHT22;54614;47.576;7.524;2023-07-20T10:09:02;26.10;61.60
67817;DHT22;54614;47.576;7.524;2023-07-20T10:11:35;26.10;61.60
67817;DHT22;54614;47.576;7.524;2023-07-20T10:14:04;26.10;61.70
67817;DHT22;54614;47.576;7.524;2023-07-20T10:16:35;26.10;61.60
67817;DHT22;54614;47.576;7.524;2023-07-20T10:19:09;26.10;61.60
67817;DHT22;54614;47.576;7.524;2023-07-20T10:21:42;26.10;61.70
67817;DHT22;54614;47.576;7.524;2023-07-20T10:24:14;26.10;61.80
67817;DHT22;54614;47.576;7.524;2023-07-20T10:26:42;26.10;61.90
67817;DHT22;54614;47.576;7.524;2023-07-20T10:29:08;26.10;61.90
67817;DHT22;54614;47.576;7.524;2023-07-20T10:31:35;26.10;61.90
67817;DHT22;54614;47.576;7.524;2023-07-20T10:34:04;26.10;61.70
67817;DHT22;54614;47.576;7.524;2023-07-20T10:36:30;26.10;61.70
67817;DHT22;54614;47.576;7.524;2023-07-20T10:38:56;26.10;61.70
67817;DHT22;54614;47.576;7.524;2023-07-20T10:41:28;26.10;61.90
67817;DHT22;54614;47.576;7.524;2023-07-20T10:44:02;26.10;61.80
67817;DHT22;54614;47.576;7.524;2023-07-20T10:49:05;26.10;61.80
67817;DHT22;54614;47.576;7.524;2023-07-20T10:51:59;26.10;61.80
67817;DHT22;54614;47.576;7.524;2023-07-20T10:56:51;26.10;61.70
67817;DHT22;54614;47.576;7.524;2023-07-20T10:59:36;26.20;61.70
67817;DHT22;54614;47.576;7.524;2023-07-20T11:02:09;26.20;61.70
67817;DHT22;54614;47.576;7.524;2023-07-20T11:04:41;26.20;61.70
67817;DHT22;54614;47.576;7.524;2023-07-20T11:07:08;26.20;61.70
67817;DHT22;54614;47.576;7.524;2023-07-20T11:09:36;26.20;61.70
67817;DHT22;54614;47.576;7.524;2023-07-20T11:12:10;26.20;61.70
67817;DHT22;54614;47.576;7.524;2023-07-20T11:14:54;26.20;61.70
67817;DHT22;54614;47.576;7.524;2023-07-20T11:17:31;26.20;61.70
67817;DHT22;54614;47.576;7.524;2023-07-20T11:20:00;26.20;61.70
67817;DHT22;54614;47.576;7.524;2023-07-20T11:22:27;26.20;61.80
67817;DHT22;54614;47.576;7.524;2023-07-20T11:24:57;26.20;61.80
67817;DHT22;54614;47.576;7.524;2023-07-20T11:27:23;26.20;61.70
67817;DHT22;54614;47.576;7.524;2023-07-20T11:29:49;26.20;61.70
67817;DHT22;54614;47.576;7.524;2023-07-20T11:32:24;26.20;61.70
67817;DHT22;54614;47.576;7.524;2023-07-20T11:34:50;26.20;61.70
67817;DHT22;54614;47.576;7.524;2023-07-20T11:37:17;26.20;61.70
67817;DHT22;54614;47.576;7.524;2023-07-20T11:39:46;26.20;61.60
67817;DHT22;54614;47.576;7.524;2023-07-20T11:42:12;26.20;61.70
67817;DHT22;54614;47.576;7.524;2023-07-20T11:44:38;26.20;61.70
67817;DHT22;54614;47.576;7.524;2023-07-20T11:47:08;26.20;61.70
67817;DHT22;54614;47.576;7.524;2023-07-20T11:52:09;26.30;61.80
67817;DHT22;54614;47.576;7.524;2023-07-20T11:54:38;26.20;61.70
67817;DHT22;54614;47.576;7.524;2023-07-20T11:57:05;26.20;61.70
67817;DHT22;54614;47.576;7.524;2023-07-20T11:59:31;26.20;61.70
67817;DHT22;54614;47.576;7.524;2023-07-20T12:02:06;26.20;61.70
67817;DHT22;54614;47.576;7.524;2023-07-20T12:04:32;26.30;61.80
67817;DHT22;54614;47.576;7.524;2023-07-20T12:06:58;26.20;61.70
67817;DHT22;54614;47.576;7.524;2023-07-20T12:09:25;26.30;61.80
67817;DHT22;54614;47.576;7.524;2023-07-20T12:11:51;26.30;61.80
67817;DHT22;54614;47.576;7.524;2023-07-20T12:14:17;26.20;61.70
67817;DHT22;54614;47.576;7.524;2023-07-20T12:16:43;26.20;61.70
67817;DHT22;54614;47.576;7.524;2023-07-20T12:19:11;26.30;61.80
67817;DHT22;54614;47.576;7.524;2023-07-20T12:21:40;26.30;61.80
67817;DHT22;54614;47.576;7.524;2023-07-20T12:24:09;26.30;61.80
67817;DHT22;54614;47.576;7.524;2023-07-20T12:26:36;26.30;61.70
67817;DHT22;54614;47.576;7.524;2023-07-20T12:29:03;26.30;61.80
67817;DHT22;54614;47.576;7.524;2023-07-20T12:31:30;26.30;61.90
67817;DHT22;54614;47.576;7.524;2023-07-20T12:33:57;26.30;61.80
67817;DHT22;54614;47.576;7.524;2023-07-20T12:36:24;26.30;61.70
67817;DHT22;54614;47.576;7.524;2023-07-20T12:38:50;26.30;61.90
67817;DHT22;54614;47.576;7.524;2023-07-20T12:41:17;26.30;61.80
67817;DHT22;54614;47.576;7.524;2023-07-20T12:43:46;26.30;61.90
67817;DHT22;54614;47.576;7.524;2023-07-20T12:46:12;26.30;61.80
67817;DHT22;54614;47.576;7.524;2023-07-20T12:48:39;26.30;61.90
67817;DHT22;54614;47.576;7.524;2023-07-20T12:51:08;26.30;61.80
67817;DHT22;54614;47.576;7.524;2023-07-20T12:53:34;26.30;61.90
67817;DHT22;54614;47.576;7.524;2023-07-20T12:56:00;26.30;61.90
67817;DHT22;54614;47.576;7.524;2023-07-20T12:58:26;26.30;61.90
67817;DHT22;54614;47.576;7.524;2023-07-20T13:00:53;26.30;61.90
67817;DHT22;54614;47.576;7.524;2023-07-20T13:03:19;26.30;61.90
67817;DHT22;54614;47.576;7.524;2023-07-20T13:05:48;26.30;61.90
67817;DHT22;54614;47.576;7.524;2023-07-20T13:08:15;26.30;61.90
67817;DHT22;54614;47.576;7.524;2023-07-20T13:10:41;26.30;61.90
67817;DHT22;54614;47.576;7.524;2023-07-20T13:13:07;26.30;61.90
67817;DHT22;54614;47.576;7.524;2023-07-20T13:15:41;26.30;61.90
67817;DHT22;54614;47.576;7.524;2023-07-20T13:18:09;26.30;62.60
67817;DHT22;54614;47.576;7.524;2023-07-20T13:20:35;26.30;61.90
67817;DHT22;54614;47.576;7.524;2023-07-20T13:23:01;26.30;61.90
67817;DHT22;54614;47.576;7.524;2023-07-20T13:25:27;26.30;61.90
67817;DHT22;54614;47.576;7.524;2023-07-20T13:27:53;26.30;61.90
67817;DHT22;54614;47.576;7.524;2023-07-20T13:30:19;26.30;61.90
67817;DHT22;54614;47.576;7.524;2023-07-20T13:32:47;26.30;61.90
67817;DHT22;54614;47.576;7.524;2023-07-20T13:35:12;26.30;61.80
67817;DHT22;54614;47.576;7.524;2023-07-20T13:37:38;26.30;61.80
67817;DHT22;54614;47.576;7.524;2023-07-20T13:40:05;26.30;61.90
67817;DHT22;54614;47.576;7.524;2023-07-20T13:42:32;26.30;61.90
67817;DHT22;54614;47.576;7.524;2023-07-20T13:44:58;26.30;61.90
67817;DHT22;54614;47.576;7.524;2023-07-20T13:47:24;26.30;61.80
67817;DHT22;54614;47.576;7.524;2023-07-20T13:49:51;26.30;61.80
67817;DHT22;54614;47.576;7.524;2023-07-20T13:52:17;26.30;61.80
67817;DHT22;54614;47.576;7.524;2023-07-20T13:54:43;26.30;61.90
67817;DHT22;54614;47.576;7.524;2023-07-20T13:57:09;26.30;61.90
67817;DHT22;54614;47.576;7.524;2023-07-20T13:59:35;26.30;61.80
67817;DHT22;54614;47.576;7.524;2023-07-20T14:02:00;26.30;61.90
67817;DHT22;54614;47.576;7.524;2023-07-20T14:04:26;26.40;61.90
67817;DHT22;54614;47.576;7.524;2023-07-20T14:06:52;26.30;61.80
67817;DHT22;54614;47.576;7.524;2023-07-20T14:09:18;26.40;61.90
67817;DHT22;54614;47.576;7.524;2023-07-20T14:11:44;26.30;61.90
67817;DHT22;54614;47.576;7.524;2023-07-20T14:14:09;26.30;61.90
67817;DHT22;54614;47.576;7.524;2023-07-20T14:16:35;26.40;61.90
67817;DHT22;54614;47.576;7.524;2023-07-20T14:19:01;26.30;61.80
67817;DHT22;54614;47.576;7.524;2023-07-20T14:21:27;26.30;61.80
67817;DHT22;54614;47.576;7.524;2023-07-20T14:23:54;26.30;61.80
67817;DHT22;54614;47.576;7.524;2023-07-20T14:26:20;26.30;61.90
67817;DHT22;54614;47.576;7.524;2023-07-20T14:28:46;26.40;61.90
67817;DHT22;54614;47.576;7.524;2023-07-20T14:31:11;26.40;61.90
67817;DHT22;54614;47.576;7.524;2023-07-20T14:33:37;26.30;61.90
67817;DHT22;54614;47.576;7.524;2023-07-20T14:36:03;26.30;61.80
67817;DHT22;54614;47.576;7.524;2023-07-20T14:38:31;26.40;61.90
67817;DHT22;54614;47.576;7.524;2023-07-20T14:40:57;26.40;61.90
67817;DHT22;54614;47.576;7.524;2023-07-20T14:43:23;26.30;61.80
67817;DHT22;54614;47.576;7.524;2023-07-20T14:45:49;26.40;61.90
67817;DHT22;54614;47.576;7.524;2023-07-20T14:48:15;26.40;61.90
67817;DHT22;54614;47.576;7.524;2023-07-20T14:50:40;26.40;61.80
67817;DHT22;54614;47.576;7.524;2023-07-20T14:53:06;26.40;61.80
67817;DHT22;54614;47.576;7.524;2023-07-20T14:55:33;26.40;61.80
67817;DHT22;54614;47.576;7.524;2023-07-20T14:57:59;26.40;61.90
67817;DHT22;54614;47.576;7.524;2023-07-20T15:00:25;26.40;61.90
67817;DHT22;54614;47.576;7.524;2023-07-20T15:02:51;26.40;61.90
67817;DHT22;54614;47.576;7.524;2023-07-20T15:05:24;26.40;61.90
67817;DHT22;54614;47.576;7.524;2023-07-20T15:07:52;26.40;61.90
67817;DHT22;54614;47.576;7.524;2023-07-20T15:10:19;26.40;61.80
67817;DHT22;54614;47.576;7.524;2023-07-20T15:12:45;26.40;61.90
67817;DHT22;54614;47.576;7.524;2023-07-20T15:15:13;26.40;61.90
67817;DHT22;54614;47.576;7.524;2023-07-20T15:17:41;26.40;61.90
67817;DHT22;54614;47.576;7.524;2023-07-20T15:20:10;26.40;61.90
67817;DHT22;54614;47.576;7.524;2023-07-20T15:22:38;26.40;61.80
67817;DHT22;54614;47.576;7.524;2023-07-20T15:25:05;26.40;61.80
67817;DHT22;54614;47.576;7.524;2023-07-20T15:27:32;26.40;61.80
67817;DHT22;54614;47.576;7.524;2023-07-20T15:29:59;26.40;61.70
67817;DHT22;54614;47.576;7.524;2023-07-20T15:32:25;26.40;61.70
67817;DHT22;54614;47.576;7.524;2023-07-20T15:34:51;26.40;61.70
67817;DHT22;54614;47.576;7.524;2023-07-20T15:37:17;26.40;61.70
67817;DHT22;54614;47.576;7.524;2023-07-20T15:39:42;26.40;61.80
67817;DHT22;54614;47.576;7.524;2023-07-20T15:42:09;26.40;61.80
67817;DHT22;54614;47.576;7.524;2023-07-20T15:44:35;26.40;61.80
67817;DHT22;54614;47.576;7.524;2023-07-20T15:47:01;26.40;61.80